createdAt,value
2018-05-31T00:01:08.164Z,10.43
2018-05-31T00:03:34.592Z,8.17
2018-05-31T00:06:00.950Z,11.73
2018-05-31T00:08:27.269Z,8.93
2018-05-31T00:10:53.597Z,14.57
2018-05-31T00:13:20.121Z,11.50
2018-05-31T00:15:46.465Z,11.37
2018-05-31T00:18:12.800Z,9.57
2018-05-31T00:20:39.173Z,14.27
2018-05-31T00:23:05.493Z,10.67
2018-05-31T00:25:31.825Z,10.07
2018-05-31T00:27:58.186Z,9.03
2018-05-31T00:30:24.508Z,9.60
2018-05-31T00:32:50.823Z,11.73
2018-05-31T00:35:17.319Z,9.73
2018-05-31T00:37:43.635Z,13.17
2018-05-31T00:40:09.959Z,15.03
2018-05-31T00:42:36.296Z,9.50
2018-05-31T00:45:02.672Z,9.73
2018-05-31T00:47:28.981Z,16.10
2018-05-31T00:49:55.307Z,19.03
2018-05-31T00:52:21.645Z,17.90
2018-05-31T00:54:47.964Z,16.37
2018-05-31T00:57:14.376Z,16.70
2018-05-31T00:59:40.694Z,11.50
2018-05-31T01:02:07.008Z,12.10
2018-05-31T01:04:33.369Z,12.50
2018-05-31T01:06:59.700Z,8.80
2018-05-31T01:09:26.002Z,8.40
2018-05-31T01:11:52.382Z,16.40
2018-05-31T01:14:18.789Z,7.33
2018-05-31T01:16:45.092Z,12.33
2018-05-31T01:19:11.666Z,10.80
2018-05-31T01:21:37.976Z,8.20
2018-05-31T01:24:04.293Z,10.67
2018-05-31T01:26:30.652Z,9.03
2018-05-31T01:28:56.957Z,10.40
2018-05-31T01:31:23.258Z,9.90
2018-05-31T01:33:49.606Z,9.70
2018-05-31T01:36:15.925Z,7.43
2018-05-31T01:38:42.234Z,10.70
2018-05-31T01:41:08.732Z,8.77
2018-05-31T01:43:35.056Z,8.23
2018-05-31T01:46:01.363Z,10.83
2018-05-31T01:48:27.724Z,12.97
2018-05-31T01:50:54.038Z,12.00
2018-05-31T01:53:20.346Z,11.17
2018-05-31T01:55:46.683Z,10.93
2018-05-31T01:58:13.019Z,9.73
2018-05-31T02:00:39.350Z,11.33
2018-05-31T02:03:05.775Z,11.27
2018-05-31T02:05:32.116Z,13.10
2018-05-31T02:07:58.417Z,9.73
2018-05-31T02:10:24.776Z,9.37
2018-05-31T02:12:51.112Z,13.83
2018-05-31T02:15:17.520Z,11.73
2018-05-31T02:17:43.869Z,14.57
2018-05-31T02:20:10.161Z,12.87
2018-05-31T02:22:36.456Z,16.17
2018-05-31T02:25:02.968Z,17.03
2018-05-31T02:27:34.929Z,9.30
2018-05-31T02:30:01.233Z,10.90
2018-05-31T02:32:27.575Z,14.97
2018-05-31T02:34:53.869Z,11.17
2018-05-31T02:37:20.186Z,16.17
2018-05-31T02:39:46.524Z,12.23
2018-05-31T02:42:12.819Z,9.07
2018-05-31T02:44:39.115Z,11.50
2018-05-31T02:47:05.594Z,16.03
2018-05-31T02:49:31.895Z,8.67
2018-05-31T02:51:58.195Z,8.33
2018-05-31T02:54:24.525Z,9.90
2018-05-31T02:56:50.827Z,8.27
2018-05-31T02:59:17.122Z,11.37
2018-05-31T03:01:43.469Z,17.10
2018-05-31T03:04:09.775Z,25.70
2018-05-31T03:06:36.088Z,12.17
2018-05-31T03:09:03.644Z,11.40
2018-05-31T03:11:30.028Z,14.67
2018-05-31T03:13:56.353Z,13.23
2018-05-31T03:16:22.833Z,20.23
2018-05-31T03:18:49.153Z,16.57
2018-05-31T03:21:15.440Z,13.23
2018-05-31T03:23:41.915Z,16.47
2018-05-31T03:26:08.219Z,14.63
2018-05-31T03:28:34.526Z,15.10
2018-05-31T03:31:00.920Z,14.27
2018-05-31T03:33:27.216Z,12.77
2018-05-31T03:35:53.524Z,9.07
2018-05-31T03:38:19.862Z,18.27
2018-05-31T03:40:46.180Z,11.70
2018-05-31T03:43:12.495Z,9.70
2018-05-31T03:45:38.831Z,15.63
2018-05-31T03:48:05.156Z,15.90
2018-05-31T03:50:31.454Z,19.23
2018-05-31T03:52:59.560Z,30.50
2018-05-31T03:55:25.868Z,21.83
2018-05-31T03:57:52.168Z,17.77
2018-05-31T04:00:18.512Z,15.60
2018-05-31T04:02:44.849Z,14.50
2018-05-31T04:05:11.157Z,23.40
2018-05-31T04:07:37.484Z,16.37
2018-05-31T04:10:03.804Z,17.13
2018-05-31T04:12:30.109Z,22.17
2018-05-31T04:14:57.750Z,10.03
2018-05-31T04:17:24.670Z,10.73
2018-05-31T04:19:51.006Z,9.10
2018-05-31T04:22:17.907Z,6.83
2018-05-31T04:24:44.910Z,10.27
2018-05-31T04:27:12.117Z,10.43
2018-05-31T04:29:38.570Z,8.23
2018-05-31T04:32:04.913Z,13.70
2018-05-31T04:34:31.224Z,15.57
2018-05-31T04:36:57.683Z,11.80
2018-05-31T04:39:23.980Z,18.77
2018-05-31T04:41:50.306Z,10.37
2018-05-31T04:44:16.676Z,17.83
2018-05-31T04:46:42.980Z,14.17
2018-05-31T04:49:09.292Z,10.67
2018-05-31T04:51:35.636Z,12.17
2018-05-31T04:54:01.950Z,14.73
2018-05-31T04:56:28.263Z,16.17
2018-05-31T04:58:54.671Z,19.27
2018-05-31T05:01:21.215Z,16.70
2018-05-31T05:03:49.526Z,21.17
2018-05-31T05:06:19.379Z,17.40
2018-05-31T05:08:45.717Z,11.27
2018-05-31T05:11:12.047Z,23.40
2018-05-31T05:13:38.417Z,12.80
2018-05-31T05:16:04.811Z,15.70
2018-05-31T05:18:33.489Z,16.80
2018-05-31T05:20:59.894Z,17.37
2018-05-31T05:23:26.204Z,21.07
2018-05-31T05:25:52.535Z,27.13
2018-05-31T05:28:18.900Z,21.50
2018-05-31T05:30:45.210Z,19.73
2018-05-31T05:33:11.551Z,15.60
2018-05-31T05:35:37.904Z,19.03
2018-05-31T05:38:04.244Z,23.40
2018-05-31T05:40:30.551Z,15.77
2018-05-31T05:42:56.988Z,21.77
2018-05-31T05:45:23.283Z,16.57
2018-05-31T05:47:49.591Z,16.80
2018-05-31T05:50:15.982Z,12.93
2018-05-31T05:52:42.292Z,14.70
2018-05-31T05:55:08.594Z,13.27
2018-05-31T05:57:34.950Z,12.07
2018-05-31T06:00:01.262Z,12.33
2018-05-31T06:02:28.391Z,12.77
2018-05-31T06:04:54.795Z,11.90
2018-05-31T06:07:21.110Z,11.00
2018-05-31T06:09:47.433Z,9.50
2018-05-31T06:12:13.809Z,13.47
2018-05-31T06:14:40.148Z,12.90
2018-05-31T06:17:06.480Z,15.73
2018-05-31T06:19:32.971Z,9.50
2018-05-31T06:21:59.303Z,8.43
2018-05-31T06:24:25.596Z,14.77
2018-05-31T06:26:52.011Z,9.70
2018-05-31T06:29:18.331Z,13.70
2018-05-31T06:31:44.656Z,16.47
2018-05-31T06:34:10.993Z,15.03
2018-05-31T06:36:37.303Z,11.27
2018-05-31T06:39:03.661Z,7.37
2018-05-31T06:41:30.021Z,9.77
2018-05-31T06:43:56.308Z,11.57
2018-05-31T06:46:22.641Z,8.17
2018-05-31T06:48:49.043Z,6.70
2018-05-31T06:51:15.353Z,6.43
2018-05-31T06:53:41.647Z,10.80
2018-05-31T06:56:07.998Z,6.73
2018-05-31T06:58:34.324Z,12.20
2018-05-31T07:01:00.669Z,9.33
2018-05-31T07:03:27.016Z,8.07
2018-05-31T07:05:53.313Z,10.43
2018-05-31T07:08:19.643Z,9.67
2018-05-31T07:10:46.161Z,8.47
2018-05-31T07:13:12.529Z,12.40
2018-05-31T07:15:38.821Z,8.50
2018-05-31T07:18:05.160Z,8.30
2018-05-31T07:20:33.192Z,8.70
2018-05-31T07:22:59.497Z,6.33
2018-05-31T07:25:25.861Z,5.23
2018-05-31T07:27:52.167Z,4.77
2018-05-31T07:30:18.482Z,4.30
2018-05-31T07:32:44.891Z,6.90
2018-05-31T07:35:11.374Z,5.37
2018-05-31T07:37:37.661Z,5.23
2018-05-31T07:40:04.000Z,6.97
2018-05-31T07:42:30.308Z,5.13
2018-05-31T07:44:56.602Z,3.40
2018-05-31T07:47:23.055Z,2.97
2018-05-31T07:49:49.359Z,5.63
2018-05-31T07:52:15.662Z,3.60
2018-05-31T07:54:43.655Z,5.27
2018-05-31T07:57:09.962Z,6.07
2018-05-31T07:59:36.258Z,6.93
2018-05-31T08:02:02.643Z,4.90
2018-05-31T08:04:28.938Z,5.23
2018-05-31T08:06:55.239Z,2.67
2018-05-31T08:09:21.560Z,3.00
2018-05-31T08:11:47.858Z,2.70
2018-05-31T08:14:14.161Z,2.67
2018-05-31T08:16:40.634Z,5.20
2018-05-31T08:19:06.933Z,2.83
2018-05-31T08:21:33.337Z,3.23
2018-05-31T08:23:59.712Z,4.13
2018-05-31T08:26:26.016Z,6.90
2018-05-31T08:28:52.320Z,2.63
2018-05-31T08:31:18.668Z,8.93
2018-05-31T08:33:44.978Z,4.03
2018-05-31T08:36:11.273Z,5.33
2018-05-31T08:38:37.692Z,3.37
2018-05-31T08:41:04.029Z,3.57
2018-05-31T08:43:32.151Z,4.07
2018-05-31T08:45:58.472Z,3.43
2018-05-31T08:48:24.771Z,4.70
2018-05-31T08:50:51.063Z,4.10
2018-05-31T08:53:17.389Z,2.03
2018-05-31T08:55:43.693Z,16.20
2018-05-31T08:58:09.988Z,3.47
2018-05-31T09:00:36.380Z,2.23
2018-05-31T09:03:02.674Z,4.37
2018-05-31T09:05:28.965Z,1.50
2018-05-31T09:07:55.325Z,1.60
2018-05-31T09:10:21.612Z,2.27
2018-05-31T09:12:47.913Z,3.67
2018-05-31T09:15:14.303Z,3.90
2018-05-31T09:17:40.575Z,3.63
2018-05-31T09:20:06.877Z,2.23
2018-05-31T09:22:33.375Z,3.13
2018-05-31T09:24:59.683Z,2.93
2018-05-31T09:27:25.978Z,4.73
2018-05-31T09:29:52.309Z,1.60
2018-05-31T09:32:18.622Z,2.00
2018-05-31T09:34:44.911Z,2.07
2018-05-31T09:37:11.238Z,4.47
2018-05-31T09:39:37.528Z,1.73
2018-05-31T09:42:03.869Z,3.40
2018-05-31T09:44:30.261Z,2.93
2018-05-31T09:46:56.560Z,2.53
2018-05-31T09:49:22.845Z,1.70
2018-05-31T09:51:49.196Z,3.73
2018-05-31T09:54:15.487Z,2.43
2018-05-31T09:56:41.780Z,3.20
2018-05-31T09:59:08.115Z,2.07
2018-05-31T10:01:34.396Z,4.93
2018-05-31T10:04:00.691Z,7.17
2018-05-31T10:06:27.135Z,4.03
2018-05-31T10:08:53.440Z,1.60
2018-05-31T10:11:19.743Z,1.70
2018-05-31T10:13:46.089Z,3.80
2018-05-31T10:16:12.514Z,3.57
2018-05-31T10:18:38.809Z,2.93
2018-05-31T10:21:05.184Z,1.67
2018-05-31T10:23:31.604Z,1.60
2018-05-31T10:25:57.910Z,1.37
2018-05-31T10:28:24.292Z,2.10
2018-05-31T10:30:50.597Z,2.57
2018-05-31T10:33:16.906Z,1.70
2018-05-31T10:35:43.225Z,6.00
2018-05-31T10:38:09.529Z,4.47
2018-05-31T10:40:35.825Z,2.30
2018-05-31T10:43:02.174Z,2.97
2018-05-31T10:45:28.472Z,4.87
2018-05-31T10:47:54.804Z,2.47
2018-05-31T10:50:21.219Z,1.40
2018-05-31T10:52:47.517Z,1.17
2018-05-31T10:55:13.835Z,10.23
2018-05-31T10:57:40.222Z,8.40
2018-05-31T11:00:06.561Z,1.90
2018-05-31T11:02:32.913Z,1.17
2018-05-31T11:04:59.340Z,1.57
2018-05-31T11:07:25.682Z,1.30
2018-05-31T11:09:51.985Z,1.73
2018-05-31T11:12:18.461Z,1.27
2018-05-31T11:14:44.830Z,2.07
2018-05-31T11:17:11.128Z,2.17
2018-05-31T11:19:37.482Z,0.97
2018-05-31T11:22:03.814Z,1.17
2018-05-31T11:24:30.229Z,1.00
2018-05-31T11:26:56.563Z,6.63
2018-05-31T11:29:22.873Z,1.10
2018-05-31T11:31:49.169Z,1.00
2018-05-31T11:34:15.574Z,0.73
2018-05-31T11:36:41.867Z,1.40
2018-05-31T11:39:08.165Z,0.87
2018-05-31T11:41:34.572Z,4.00
2018-05-31T11:44:00.845Z,0.87
2018-05-31T11:46:27.177Z,0.80
2018-05-31T11:48:53.512Z,1.10
2018-05-31T11:51:19.850Z,1.30
2018-05-31T11:53:46.320Z,1.23
2018-05-31T11:56:13.681Z,2.40
2018-05-31T11:58:39.999Z,2.13
2018-05-31T12:01:06.335Z,1.17
2018-05-31T12:03:32.681Z,2.83
2018-05-31T12:05:58.976Z,2.43
2018-05-31T12:08:25.339Z,1.23
2018-05-31T12:10:51.739Z,1.07
2018-05-31T12:13:22.993Z,1.53
2018-05-31T12:15:49.304Z,1.33
2018-05-31T12:18:15.731Z,2.73
2018-05-31T12:20:42.052Z,3.53
2018-05-31T12:23:08.386Z,5.43
2018-05-31T12:25:34.879Z,3.20
2018-05-31T12:28:01.196Z,5.97
2018-05-31T12:30:27.480Z,2.03
2018-05-31T12:32:53.816Z,4.77
2018-05-31T12:35:20.120Z,1.67
2018-05-31T12:37:46.462Z,3.97
2018-05-31T12:40:12.862Z,2.07
2018-05-31T12:42:39.166Z,1.73
2018-05-31T12:45:05.472Z,2.70
2018-05-31T12:47:31.857Z,2.83
2018-05-31T12:49:58.169Z,1.30
2018-05-31T12:52:24.489Z,4.80
2018-05-31T12:54:50.840Z,1.40
2018-05-31T12:57:17.148Z,3.27
2018-05-31T12:59:43.457Z,1.10
2018-05-31T13:02:09.888Z,1.40
2018-05-31T13:04:36.175Z,1.60
2018-05-31T13:07:02.486Z,1.70
2018-05-31T13:09:34.211Z,2.77
2018-05-31T13:12:00.512Z,2.47
2018-05-31T13:14:26.835Z,1.70
2018-05-31T13:16:53.180Z,2.17
2018-05-31T13:19:19.502Z,3.47
2018-05-31T13:21:45.804Z,2.13
2018-05-31T13:24:12.322Z,1.87
2018-05-31T13:26:38.718Z,4.17
2018-05-31T13:29:05.047Z,2.63
2018-05-31T13:31:31.393Z,2.47
2018-05-31T13:33:57.696Z,8.37
2018-05-31T13:36:24.000Z,2.13
2018-05-31T13:38:50.332Z,1.90
2018-05-31T13:41:17.319Z,2.70
2018-05-31T13:43:43.629Z,2.90
2018-05-31T13:46:10.111Z,3.83
2018-05-31T13:48:36.462Z,6.50
2018-05-31T13:51:02.761Z,3.03
2018-05-31T13:53:29.100Z,3.70
2018-05-31T13:55:55.424Z,3.23
2018-05-31T13:58:21.778Z,3.77
2018-05-31T14:00:48.111Z,4.60
2018-05-31T14:03:14.415Z,4.07
2018-05-31T14:05:40.725Z,4.23
2018-05-31T14:08:07.158Z,1.50
2018-05-31T14:10:33.462Z,4.67
2018-05-31T14:12:59.792Z,5.77
2018-05-31T14:15:26.127Z,6.20
2018-05-31T14:17:52.421Z,3.80
2018-05-31T14:20:18.695Z,2.63
2018-05-31T14:22:45.029Z,3.30
2018-05-31T14:25:11.354Z,4.30
2018-05-31T14:27:41.872Z,5.53
2018-05-31T14:30:08.792Z,2.72
2018-05-31T14:32:35.133Z,3.10
2018-05-31T14:35:01.433Z,2.53
2018-05-31T14:37:27.789Z,3.80
2018-05-31T14:39:54.173Z,3.78
2018-05-31T14:42:20.455Z,2.70
2018-05-31T14:44:46.790Z,4.40
2018-05-31T14:47:13.124Z,2.72
2018-05-31T14:49:39.427Z,3.17
2018-05-31T14:52:05.866Z,4.05
2018-05-31T14:54:32.166Z,2.50
2018-05-31T14:56:58.487Z,3.05
2018-05-31T14:59:24.839Z,4.47
2018-05-31T15:01:51.249Z,5.10
2018-05-31T15:04:18.660Z,2.50
2018-05-31T15:06:45.052Z,3.35
2018-05-31T15:09:11.465Z,3.15
2018-05-31T15:11:37.805Z,9.10
2018-05-31T15:14:04.290Z,4.87
2018-05-31T15:16:30.835Z,11.68
2018-05-31T15:18:57.183Z,7.75
2018-05-31T15:21:23.567Z,5.30
2018-05-31T15:23:49.914Z,9.63
2018-05-31T15:26:16.270Z,9.50
2018-05-31T15:28:45.240Z,5.07
2018-05-31T15:31:11.578Z,24.95
2018-05-31T15:33:37.916Z,9.30
2018-05-31T15:36:04.400Z,8.07
2018-05-31T15:38:30.759Z,6.00
2018-05-31T15:40:57.112Z,4.62
2018-05-31T15:43:23.503Z,2.07
2018-05-31T15:45:49.867Z,7.73
2018-05-31T15:48:16.225Z,9.30
2018-05-31T15:50:42.619Z,3.33
2018-05-31T15:53:08.978Z,1.60
2018-05-31T15:55:35.316Z,4.70
2018-05-31T15:58:01.856Z,4.20
2018-05-31T16:00:28.203Z,2.13
2018-05-31T16:02:54.560Z,3.73
2018-05-31T16:05:20.961Z,2.90
2018-05-31T16:07:47.314Z,4.33
2018-05-31T16:10:13.686Z,2.37
2018-05-31T16:12:40.075Z,3.50
2018-05-31T16:15:06.436Z,7.50
2018-05-31T16:17:32.767Z,3.20
2018-05-31T16:19:59.241Z,1.67
2018-05-31T16:22:25.642Z,3.60
2018-05-31T16:24:51.983Z,2.10
2018-05-31T16:27:18.354Z,5.10
2018-05-31T16:29:44.848Z,1.50
2018-05-31T16:32:11.187Z,4.57
2018-05-31T16:34:37.562Z,1.93
2018-05-31T16:37:03.912Z,3.80
2018-05-31T16:39:30.258Z,1.03
2018-05-31T16:41:56.712Z,3.43
2018-05-31T16:44:23.057Z,1.37
2018-05-31T16:46:49.414Z,2.17
2018-05-31T16:49:15.804Z,4.00
2018-05-31T16:51:42.194Z,3.63
2018-05-31T16:54:08.598Z,2.93
2018-05-31T16:56:34.979Z,4.73
2018-05-31T16:59:01.364Z,11.43
2018-05-31T17:01:27.717Z,2.90
2018-05-31T17:03:54.247Z,5.50
2018-05-31T17:06:20.601Z,4.60
2018-05-31T17:08:46.945Z,7.67
2018-05-31T17:11:13.316Z,5.40
2018-05-31T17:13:39.655Z,3.40
2018-05-31T17:16:06.015Z,6.67
2018-05-31T17:18:32.424Z,4.80
2018-05-31T17:20:58.776Z,3.27
2018-05-31T17:23:25.126Z,7.10
2018-05-31T17:25:58.238Z,3.80
2018-05-31T17:28:24.587Z,8.63
2018-05-31T17:30:51.026Z,11.07
2018-05-31T17:33:17.425Z,5.77
2018-05-31T17:35:43.786Z,13.70
2018-05-31T17:38:10.181Z,5.77
2018-05-31T17:40:36.617Z,6.73
2018-05-31T17:43:03.005Z,3.60
2018-05-31T17:45:29.344Z,2.70
2018-05-31T17:47:55.872Z,2.97
2018-05-31T17:50:22.224Z,3.37
2018-05-31T17:52:48.625Z,6.17
2018-05-31T17:55:15.733Z,14.37
2018-05-31T17:57:42.107Z,6.83
2018-05-31T18:00:08.496Z,5.70
2018-05-31T18:02:35.063Z,7.13
2018-05-31T18:05:01.429Z,9.70
2018-05-31T18:07:27.804Z,9.17
2018-05-31T18:09:54.239Z,6.83
2018-05-31T18:12:20.619Z,3.50
2018-05-31T18:14:46.975Z,7.30
2018-05-31T18:17:13.352Z,5.80
2018-05-31T18:19:39.689Z,24.87
2018-05-31T18:22:06.041Z,10.97
2018-05-31T18:24:32.476Z,5.37
2018-05-31T18:26:58.861Z,7.67
2018-05-31T18:29:25.212Z,7.33
2018-05-31T18:31:51.837Z,3.40
2018-05-31T18:34:18.204Z,3.83
2018-05-31T18:36:44.552Z,5.17
2018-05-31T18:39:10.946Z,7.93
2018-05-31T18:41:37.390Z,8.13
2018-05-31T18:44:03.790Z,6.73
2018-05-31T18:46:30.648Z,10.80
2018-05-31T18:48:57.211Z,19.80
2018-05-31T18:51:23.596Z,12.50
2018-05-31T18:53:50.120Z,12.07
2018-05-31T18:56:16.689Z,13.53
2018-05-31T18:58:43.057Z,9.93
2018-05-31T19:01:09.913Z,8.80
2018-05-31T19:03:36.453Z,4.63
2018-05-31T19:06:03.011Z,11.07
2018-05-31T19:08:29.401Z,11.73
2018-05-31T19:10:55.818Z,3.53
2018-05-31T19:13:28.288Z,5.40
2018-05-31T19:15:55.355Z,5.17
2018-05-31T19:18:27.889Z,9.07
2018-05-31T19:20:54.306Z,22.00
2018-05-31T19:23:20.704Z,3.83
2018-05-31T19:25:47.072Z,2.50
2018-05-31T19:28:13.476Z,9.73
2018-05-31T19:33:40.659Z,3.87
2018-05-31T19:36:13.143Z,3.60
2018-05-31T19:38:39.601Z,5.87
2018-05-31T19:41:05.960Z,9.27
2018-05-31T19:43:38.289Z,8.70
2018-05-31T19:46:04.677Z,15.50
2018-05-31T19:48:31.045Z,8.40
2018-05-31T19:50:57.612Z,5.33
2018-05-31T19:53:30.129Z,11.73
2018-05-31T19:55:57.139Z,7.50
2018-05-31T19:58:29.664Z,7.07
2018-05-31T20:01:02.103Z,11.57
2018-05-31T20:03:32.575Z,12.03
2018-05-31T20:05:58.946Z,10.63
2018-05-31T20:08:25.304Z,9.73
2018-05-31T20:10:51.770Z,10.37
2018-05-31T20:13:18.129Z,12.03
2018-05-31T20:15:44.516Z,10.90
2018-05-31T20:18:10.912Z,10.97
2018-05-31T20:20:37.267Z,10.17
2018-05-31T20:23:03.708Z,7.27
2018-05-31T20:25:30.087Z,30.57
2018-05-31T20:27:56.434Z,10.63
2018-05-31T20:30:22.802Z,10.50
2018-05-31T20:32:49.384Z,5.23
2018-05-31T20:35:15.862Z,8.17
2018-05-31T20:37:42.249Z,14.47
2018-05-31T20:40:08.633Z,14.53
2018-05-31T20:42:34.991Z,14.97
2018-05-31T20:45:01.349Z,10.13
2018-05-31T20:47:27.768Z,5.50
2018-05-31T20:49:54.117Z,6.47
2018-05-31T20:52:21.483Z,9.63
2018-05-31T20:54:48.098Z,5.37
2018-05-31T20:57:14.459Z,6.73
2018-05-31T20:59:40.820Z,23.90
2018-05-31T21:02:07.303Z,25.40
2018-05-31T21:04:33.651Z,11.77
2018-05-31T21:07:01.940Z,5.23
2018-05-31T21:09:35.274Z,3.60
2018-05-31T21:12:02.130Z,4.20
2018-05-31T21:14:28.482Z,6.90
2018-05-31T21:16:55.487Z,6.90
2018-05-31T21:19:21.849Z,11.37
2018-05-31T21:21:48.192Z,14.10
2018-05-31T21:24:14.579Z,15.27
2018-05-31T21:26:40.929Z,13.37
2018-05-31T21:29:07.286Z,9.87
2018-05-31T21:31:33.700Z,8.13
2018-05-31T21:34:00.067Z,11.07
2018-05-31T21:36:29.469Z,4.40
2018-05-31T21:38:55.893Z,4.83
2018-05-31T21:41:22.228Z,7.77
2018-05-31T21:43:48.561Z,7.47
2018-05-31T21:46:14.926Z,5.43
2018-05-31T21:48:41.288Z,4.90
2018-05-31T21:51:07.652Z,3.47
2018-05-31T21:53:34.055Z,6.17
2018-05-31T21:56:00.402Z,14.90
2018-05-31T21:58:26.755Z,17.00
2018-05-31T22:00:55.082Z,15.17
2018-05-31T22:03:21.432Z,17.57
2018-05-31T22:05:47.784Z,14.37
2018-05-31T22:08:14.187Z,12.27
2018-05-31T22:10:40.544Z,9.27
2018-05-31T22:13:06.920Z,4.27
2018-05-31T22:15:33.308Z,5.47
2018-05-31T22:17:59.643Z,5.60
2018-05-31T22:20:25.967Z,5.20
2018-05-31T22:22:52.405Z,5.33
2018-05-31T22:25:18.753Z,10.10
2018-05-31T22:27:45.108Z,7.10
2018-05-31T22:30:11.497Z,5.83
2018-05-31T22:32:37.860Z,6.60
2018-05-31T22:35:04.217Z,11.60
2018-05-31T22:37:30.772Z,6.87
2018-05-31T22:39:57.120Z,8.80
2018-05-31T22:42:23.470Z,11.30
2018-05-31T22:44:49.925Z,15.67
2018-05-31T22:47:16.256Z,7.33
2018-05-31T22:49:42.590Z,6.40
2018-05-31T22:52:08.957Z,8.90
2018-05-31T22:54:35.306Z,4.97
2018-05-31T22:57:01.642Z,7.10
2018-05-31T22:59:28.009Z,9.17
2018-05-31T23:01:54.356Z,11.00
2018-05-31T23:04:20.701Z,8.73
2018-05-31T23:06:47.128Z,23.73
2018-05-31T23:09:13.475Z,27.03
2018-05-31T23:11:39.819Z,15.53
2018-05-31T23:14:06.189Z,14.77
2018-05-31T23:16:32.553Z,10.20
2018-05-31T23:18:58.956Z,9.00
2018-05-31T23:21:25.351Z,5.53
2018-05-31T23:23:51.699Z,19.70
2018-05-31T23:26:18.055Z,19.03
2018-05-31T23:28:44.488Z,6.40
2018-05-31T23:31:10.819Z,6.03
2018-05-31T23:33:37.157Z,5.57
2018-05-31T23:36:03.558Z,6.93
2018-05-31T23:38:30.789Z,3.63
2018-05-31T23:40:57.121Z,5.33
2018-05-31T23:43:23.505Z,3.70
2018-05-31T23:45:49.844Z,4.07
2018-05-31T23:48:16.172Z,3.60
2018-05-31T23:50:48.070Z,11.80
2018-05-31T23:53:16.780Z,4.40
2018-05-31T23:55:43.207Z,4.27
2018-05-31T23:58:09.585Z,5.43
